sensor_id;sensor_type;location;lat;lon;timestamp;temperature;humidity
52181;DHT22;38158;53.338;6.514;2024-02-16T00:00:18;11.20;99.90
52181;DHT22;38158;53.338;6.514;2024-02-16T00:02:44;11.10;99.90
52181;DHT22;38158;53.338;6.514;2024-02-16T00:05:11;11.10;99.90
52181;DHT22;38158;53.338;6.514;2024-02-16T00:07:40;11.20;99.90
52181;DHT22;38158;53.338;6.514;2024-02-16T00:10:07;11.10;99.90
52181;DHT22;38158;53.338;6.514;2024-02-16T00:12:33;11.10;99.90
52181;DHT22;38158;53.338;6.514;2024-02-16T00:15:00;11.10;99.90
52181;DHT22;38158;53.338;6.514;2024-02-16T00:17:26;11.10;99.90
52181;DHT22;38158;53.338;6.514;2024-02-16T00:19:58;11.00;99.90
52181;DHT22;38158;53.338;6.514;2024-02-16T00:22:23;11.00;99.90
52181;DHT22;38158;53.338;6.514;2024-02-16T00:24:49;11.00;99.90
52181;DHT22;38158;53.338;6.514;2024-02-16T00:27:15;11.00;99.90
52181;DHT22;38158;53.338;6.514;2024-02-16T00:29:42;11.00;99.90
52181;DHT22;38158;53.338;6.514;2024-02-16T00:32:08;11.00;99.90
52181;DHT22;38158;53.338;6.514;2024-02-16T00:34:34;11.00;99.90
52181;DHT22;38158;53.338;6.514;2024-02-16T00:37:00;11.00;99.90
52181;DHT22;38158;53.338;6.514;2024-02-16T00:39:26;11.00;99.90
52181;DHT22;38158;53.338;6.514;2024-02-16T00:41:52;11.00;99.90
52181;DHT22;38158;53.338;6.514;2024-02-16T00:44:18;11.00;99.90
52181;DHT22;38158;53.338;6.514;2024-02-16T00:46:44;11.00;99.90
52181;DHT22;38158;53.338;6.514;2024-02-16T00:49:10;11.10;99.90
52181;DHT22;38158;53.338;6.514;2024-02-16T00:51:36;11.00;99.90
52181;DHT22;38158;53.338;6.514;2024-02-16T00:54:02;10.90;99.90
52181;DHT22;38158;53.338;6.514;2024-02-16T00:56:29;10.90;99.90
52181;DHT22;38158;53.338;6.514;2024-02-16T00:58:55;10.90;99.90
52181;DHT22;38158;53.338;6.514;2024-02-16T01:01:21;10.90;99.90
52181;DHT22;38158;53.338;6.514;2024-02-16T01:03:48;10.90;99.90
52181;DHT22;38158;53.338;6.514;2024-02-16T01:06:14;10.80;99.90
52181;DHT22;38158;53.338;6.514;2024-02-16T01:08:40;10.80;99.90
52181;DHT22;38158;53.338;6.514;2024-02-16T01:11:06;10.70;99.90
52181;DHT22;38158;53.338;6.514;2024-02-16T01:13:33;10.80;99.90
52181;DHT22;38158;53.338;6.514;2024-02-16T01:15:59;10.80;99.90
52181;DHT22;38158;53.338;6.514;2024-02-16T01:18:25;10.80;99.90
52181;DHT22;38158;53.338;6.514;2024-02-16T01:20:51;10.70;99.90
52181;DHT22;38158;53.338;6.514;2024-02-16T01:23:17;10.90;99.90
52181;DHT22;38158;53.338;6.514;2024-02-16T01:25:43;10.70;99.90
52181;DHT22;38158;53.338;6.514;2024-02-16T01:28:08;10.70;99.90
52181;DHT22;38158;53.338;6.514;2024-02-16T01:30:34;10.70;99.90
52181;DHT22;38158;53.338;6.514;2024-02-16T01:33:00;10.60;99.90
52181;DHT22;38158;53.338;6.514;2024-02-16T01:35:25;10.60;99.90
52181;DHT22;38158;53.338;6.514;2024-02-16T01:37:51;10.70;99.90
52181;DHT22;38158;53.338;6.514;2024-02-16T01:40:16;10.60;99.90
52181;DHT22;38158;53.338;6.514;2024-02-16T01:42:47;10.60;99.90
52181;DHT22;38158;53.338;6.514;2024-02-16T01:45:13;10.50;99.90
52181;DHT22;38158;53.338;6.514;2024-02-16T01:47:39;10.50;99.90
52181;DHT22;38158;53.338;6.514;2024-02-16T01:50:07;10.50;99.90
52181;DHT22;38158;53.338;6.514;2024-02-16T01:52:33;10.50;99.90
52181;DHT22;38158;53.338;6.514;2024-02-16T01:55:02;10.50;99.90
52181;DHT22;38158;53.338;6.514;2024-02-16T01:57:30;10.40;99.90
52181;DHT22;38158;53.338;6.514;2024-02-16T01:59:56;10.40;99.90
52181;DHT22;38158;53.338;6.514;2024-02-16T02:02:21;10.40;99.90
52181;DHT22;38158;53.338;6.514;2024-02-16T02:04:47;10.40;99.90
52181;DHT22;38158;53.338;6.514;2024-02-16T02:07:15;10.30;99.90
52181;DHT22;38158;53.338;6.514;2024-02-16T02:09:41;10.30;99.90
52181;DHT22;38158;53.338;6.514;2024-02-16T02:12:10;10.30;99.90
52181;DHT22;38158;53.338;6.514;2024-02-16T02:14:36;10.20;99.90
52181;DHT22;38158;53.338;6.514;2024-02-16T02:17:03;10.20;99.90
52181;DHT22;38158;53.338;6.514;2024-02-16T02:19:29;10.20;99.90
52181;DHT22;38158;53.338;6.514;2024-02-16T02:21:55;10.30;99.90
52181;DHT22;38158;53.338;6.514;2024-02-16T02:24:21;10.20;99.90
52181;DHT22;38158;53.338;6.514;2024-02-16T02:26:46;10.20;99.90
52181;DHT22;38158;53.338;6.514;2024-02-16T02:29:12;10.70;99.90
52181;DHT22;38158;53.338;6.514;2024-02-16T02:31:38;10.10;99.90
52181;DHT22;38158;53.338;6.514;2024-02-16T02:34:03;10.10;99.90
52181;DHT22;38158;53.338;6.514;2024-02-16T02:36:31;10.10;99.90
52181;DHT22;38158;53.338;6.514;2024-02-16T02:38:58;10.10;99.90
52181;DHT22;38158;53.338;6.514;2024-02-16T02:41:24;10.10;99.90
52181;DHT22;38158;53.338;6.514;2024-02-16T02:43:50;10.30;99.90
52181;DHT22;38158;53.338;6.514;2024-02-16T02:46:16;10.10;99.90
52181;DHT22;38158;53.338;6.514;2024-02-16T02:48:46;10.00;99.90
52181;DHT22;38158;53.338;6.514;2024-02-16T02:51:11;10.00;99.90
52181;DHT22;38158;53.338;6.514;2024-02-16T02:53:37;10.20;99.90
52181;DHT22;38158;53.338;6.514;2024-02-16T02:56:04;10.10;99.90
52181;DHT22;38158;53.338;6.514;2024-02-16T02:58:30;10.00;99.90
52181;DHT22;38158;53.338;6.514;2024-02-16T03:00:55;10.00;99.90
52181;DHT22;38158;53.338;6.514;2024-02-16T03:03:22;10.30;99.90
52181;DHT22;38158;53.338;6.514;2024-02-16T03:05:48;10.00;99.90
52181;DHT22;38158;53.338;6.514;2024-02-16T03:08:14;10.00;99.90
52181;DHT22;38158;53.338;6.514;2024-02-16T03:10:40;9.90;99.90
52181;DHT22;38158;53.338;6.514;2024-02-16T03:13:06;9.90;99.90
52181;DHT22;38158;53.338;6.514;2024-02-16T03:15:34;9.90;99.90
52181;DHT22;38158;53.338;6.514;2024-02-16T03:18:01;10.10;99.90
52181;DHT22;38158;53.338;6.514;2024-02-16T03:20:27;10.20;99.90
52181;DHT22;38158;53.338;6.514;2024-02-16T03:22:53;9.90;99.90
52181;DHT22;38158;53.338;6.514;2024-02-16T03:25:19;9.80;99.90
52181;DHT22;38158;53.338;6.514;2024-02-16T03:27:45;9.90;99.90
52181;DHT22;38158;53.338;6.514;2024-02-16T03:30:11;9.80;99.90
52181;DHT22;38158;53.338;6.514;2024-02-16T03:32:37;9.80;99.90
52181;DHT22;38158;53.338;6.514;2024-02-16T03:35:03;9.80;99.90
52181;DHT22;38158;53.338;6.514;2024-02-16T03:37:29;9.80;99.90
52181;DHT22;38158;53.338;6.514;2024-02-16T03:39:56;9.80;99.90
52181;DHT22;38158;53.338;6.514;2024-02-16T03:42:21;9.80;99.90
52181;DHT22;38158;53.338;6.514;2024-02-16T03:44:47;9.80;99.90
52181;DHT22;38158;53.338;6.514;2024-02-16T03:47:13;9.80;99.90
52181;DHT22;38158;53.338;6.514;2024-02-16T03:49:39;10.10;99.90
52181;DHT22;38158;53.338;6.514;2024-02-16T03:52:05;9.80;99.90
52181;DHT22;38158;53.338;6.514;2024-02-16T03:54:31;9.80;99.90
52181;DHT22;38158;53.338;6.514;2024-02-16T03:56:57;9.80;99.90
52181;DHT22;38158;53.338;6.514;2024-02-16T03:59:23;9.80;99.90
52181;DHT22;38158;53.338;6.514;2024-02-16T04:01:49;9.80;99.90
52181;DHT22;38158;53.338;6.514;2024-02-16T04:04:15;9.80;99.90
52181;DHT22;38158;53.338;6.514;2024-02-16T04:06:41;9.80;99.90
52181;DHT22;38158;53.338;6.514;2024-02-16T04:09:07;10.30;99.90
52181;DHT22;38158;53.338;6.514;2024-02-16T04:11:33;9.70;99.90
52181;DHT22;38158;53.338;6.514;2024-02-16T04:13:59;9.70;99.90
52181;DHT22;38158;53.338;6.514;2024-02-16T04:16:25;9.70;99.90
52181;DHT22;38158;53.338;6.514;2024-02-16T04:18:51;9.70;99.90
52181;DHT22;38158;53.338;6.514;2024-02-16T04:21:17;9.70;99.90
52181;DHT22;38158;53.338;6.514;2024-02-16T04:23:44;9.70;99.90
52181;DHT22;38158;53.338;6.514;2024-02-16T04:26:09;9.70;99.90
52181;DHT22;38158;53.338;6.514;2024-02-16T04:28:36;9.70;99.90
52181;DHT22;38158;53.338;6.514;2024-02-16T04:31:02;9.70;99.90
52181;DHT22;38158;53.338;6.514;2024-02-16T04:33:28;9.70;99.90
52181;DHT22;38158;53.338;6.514;2024-02-16T04:35:53;9.70;99.90
52181;DHT22;38158;53.338;6.514;2024-02-16T04:38:19;9.70;99.90
52181;DHT22;38158;53.338;6.514;2024-02-16T04:40:45;9.70;99.90
52181;DHT22;38158;53.338;6.514;2024-02-16T04:43:11;9.90;99.90
52181;DHT22;38158;53.338;6.514;2024-02-16T04:45:37;9.70;99.90
52181;DHT22;38158;53.338;6.514;2024-02-16T04:48:06;9.70;99.90
52181;DHT22;38158;53.338;6.514;2024-02-16T04:50:33;9.70;99.90
52181;DHT22;38158;53.338;6.514;2024-02-16T04:52:59;9.70;99.90
52181;DHT22;38158;53.338;6.514;2024-02-16T04:55:27;9.70;99.90
52181;DHT22;38158;53.338;6.514;2024-02-16T04:57:54;9.80;99.90
52181;DHT22;38158;53.338;6.514;2024-02-16T05:00:20;9.60;99.90
52181;DHT22;38158;53.338;6.514;2024-02-16T05:02:46;9.60;99.90
52181;DHT22;38158;53.338;6.514;2024-02-16T05:05:12;9.70;99.90
52181;DHT22;38158;53.338;6.514;2024-02-16T05:07:38;9.60;99.90
52181;DHT22;38158;53.338;6.514;2024-02-16T05:10:07;9.70;99.90
52181;DHT22;38158;53.338;6.514;2024-02-16T05:12:33;9.70;99.90
52181;DHT22;38158;53.338;6.514;2024-02-16T05:15:00;9.70;99.90
52181;DHT22;38158;53.338;6.514;2024-02-16T05:17:26;9.70;99.90
52181;DHT22;38158;53.338;6.514;2024-02-16T05:19:52;9.70;99.90
52181;DHT22;38158;53.338;6.514;2024-02-16T05:22:19;9.60;99.90
52181;DHT22;38158;53.338;6.514;2024-02-16T05:24:47;10.20;99.90
52181;DHT22;38158;53.338;6.514;2024-02-16T05:27:13;9.70;99.90
52181;DHT22;38158;53.338;6.514;2024-02-16T05:29:42;9.60;99.90
52181;DHT22;38158;53.338;6.514;2024-02-16T05:32:08;9.60;99.90
52181;DHT22;38158;53.338;6.514;2024-02-16T05:34:33;9.60;99.90
52181;DHT22;38158;53.338;6.514;2024-02-16T05:37:06;9.60;99.90
52181;DHT22;38158;53.338;6.514;2024-02-16T05:39:33;9.60;99.90
52181;DHT22;38158;53.338;6.514;2024-02-16T05:42:01;9.60;99.90
52181;DHT22;38158;53.338;6.514;2024-02-16T05:44:27;9.60;99.90
52181;DHT22;38158;53.338;6.514;2024-02-16T05:46:54;9.80;99.90
52181;DHT22;38158;53.338;6.514;2024-02-16T05:49:19;9.70;99.90
52181;DHT22;38158;53.338;6.514;2024-02-16T05:51:46;9.70;99.90
52181;DHT22;38158;53.338;6.514;2024-02-16T05:54:31;9.80;99.90
52181;DHT22;38158;53.338;6.514;2024-02-16T05:56:57;9.70;99.90
52181;DHT22;38158;53.338;6.514;2024-02-16T05:59:22;9.70;99.90
52181;DHT22;38158;53.338;6.514;2024-02-16T06:01:50;9.70;99.90
52181;DHT22;38158;53.338;6.514;2024-02-16T06:04:16;9.70;99.90
52181;DHT22;38158;53.338;6.514;2024-02-16T06:06:41;9.70;99.90
52181;DHT22;38158;53.338;6.514;2024-02-16T06:09:07;9.80;99.90
52181;DHT22;38158;53.338;6.514;2024-02-16T06:11:33;9.80;99.90
52181;DHT22;38158;53.338;6.514;2024-02-16T06:13:58;9.60;99.90
52181;DHT22;38158;53.338;6.514;2024-02-16T06:16:24;9.60;99.90
52181;DHT22;38158;53.338;6.514;2024-02-16T06:18:49;9.60;99.90
52181;DHT22;38158;53.338;6.514;2024-02-16T06:21:15;9.70;99.90
52181;DHT22;38158;53.338;6.514;2024-02-16T06:23:41;9.60;99.90
52181;DHT22;38158;53.338;6.514;2024-02-16T06:26:07;10.40;99.90
52181;DHT22;38158;53.338;6.514;2024-02-16T06:28:32;9.60;99.90
52181;DHT22;38158;53.338;6.514;2024-02-16T06:30:58;9.60;99.90
52181;DHT22;38158;53.338;6.514;2024-02-16T06:33:24;9.60;99.90
52181;DHT22;38158;53.338;6.514;2024-02-16T06:35:49;9.50;99.90
52181;DHT22;38158;53.338;6.514;2024-02-16T06:38:15;9.60;99.90
52181;DHT22;38158;53.338;6.514;2024-02-16T06:40:41;9.50;99.90
52181;DHT22;38158;53.338;6.514;2024-02-16T06:43:07;9.50;99.90
52181;DHT22;38158;53.338;6.514;2024-02-16T06:45:32;9.50;99.90
52181;DHT22;38158;53.338;6.514;2024-02-16T06:47:58;9.50;99.90
52181;DHT22;38158;53.338;6.514;2024-02-16T06:50:24;9.50;99.90
52181;DHT22;38158;53.338;6.514;2024-02-16T06:52:49;9.50;99.90
52181;DHT22;38158;53.338;6.514;2024-02-16T06:55:15;9.50;99.90
52181;DHT22;38158;53.338;6.514;2024-02-16T06:57:40;9.40;99.90
52181;DHT22;38158;53.338;6.514;2024-02-16T07:00:08;9.50;99.90
52181;DHT22;38158;53.338;6.514;2024-02-16T07:02:34;9.50;99.90
52181;DHT22;38158;53.338;6.514;2024-02-16T07:05:00;9.50;99.90
52181;DHT22;38158;53.338;6.514;2024-02-16T07:07:26;9.50;99.90
52181;DHT22;38158;53.338;6.514;2024-02-16T07:09:51;9.50;99.90
52181;DHT22;38158;53.338;6.514;2024-02-16T07:12:17;10.20;99.90
52181;DHT22;38158;53.338;6.514;2024-02-16T07:14:42;10.10;99.90
52181;DHT22;38158;53.338;6.514;2024-02-16T07:17:10;9.50;99.90
52181;DHT22;38158;53.338;6.514;2024-02-16T07:19:36;9.60;99.90
52181;DHT22;38158;53.338;6.514;2024-02-16T07:22:02;9.70;99.90
52181;DHT22;38158;53.338;6.514;2024-02-16T07:24:28;9.60;99.90
52181;DHT22;38158;53.338;6.514;2024-02-16T07:26:54;9.70;99.90
52181;DHT22;38158;53.338;6.514;2024-02-16T07:29:20;9.70;99.90
52181;DHT22;38158;53.338;6.514;2024-02-16T07:31:45;10.20;99.90
52181;DHT22;38158;53.338;6.514;2024-02-16T07:34:11;9.80;99.90
52181;DHT22;38158;53.338;6.514;2024-02-16T07:36:39;10.50;99.90
52181;DHT22;38158;53.338;6.514;2024-02-16T07:39:05;9.80;99.90
52181;DHT22;38158;53.338;6.514;2024-02-16T07:41:31;9.80;99.90
52181;DHT22;38158;53.338;6.514;2024-02-16T07:43:56;9.80;99.90
52181;DHT22;38158;53.338;6.514;2024-02-16T07:46:23;10.70;99.90
52181;DHT22;38158;53.338;6.514;2024-02-16T07:48:49;9.90;99.90
52181;DHT22;38158;53.338;6.514;2024-02-16T07:51:14;9.90;99.90
52181;DHT22;38158;53.338;6.514;2024-02-16T07:53:40;10.00;99.90
52181;DHT22;38158;53.338;6.514;2024-02-16T07:56:07;10.00;99.90
52181;DHT22;38158;53.338;6.514;2024-02-16T07:58:33;10.00;99.90
52181;DHT22;38158;53.338;6.514;2024-02-16T08:00:58;10.00;99.90
52181;DHT22;38158;53.338;6.514;2024-02-16T08:03:24;10.00;99.90
52181;DHT22;38158;53.338;6.514;2024-02-16T08:05:50;10.90;99.90
52181;DHT22;38158;53.338;6.514;2024-02-16T08:08:15;10.10;99.90
52181;DHT22;38158;53.338;6.514;2024-02-16T08:10:41;10.10;99.90
52181;DHT22;38158;53.338;6.514;2024-02-16T08:13:06;10.10;99.90
52181;DHT22;38158;53.338;6.514;2024-02-16T08:15:32;10.20;99.90
52181;DHT22;38158;53.338;6.514;2024-02-16T08:17:58;10.20;99.90
52181;DHT22;38158;53.338;6.514;2024-02-16T08:20:23;10.20;99.90
52181;DHT22;38158;53.338;6.514;2024-02-16T08:22:49;10.40;99.90
52181;DHT22;38158;53.338;6.514;2024-02-16T08:25:15;10.20;99.90
52181;DHT22;38158;53.338;6.514;2024-02-16T08:27:40;10.20;99.90
52181;DHT22;38158;53.338;6.514;2024-02-16T08:30:07;10.30;99.90
52181;DHT22;38158;53.338;6.514;2024-02-16T08:32:34;10.30;99.90
52181;DHT22;38158;53.338;6.514;2024-02-16T08:35:00;10.30;99.90
52181;DHT22;38158;53.338;6.514;2024-02-16T08:37:25;10.50;99.90
52181;DHT22;38158;53.338;6.514;2024-02-16T08:39:52;10.40;99.90
52181;DHT22;38158;53.338;6.514;2024-02-16T08:42:18;10.40;99.90
52181;DHT22;38158;53.338;6.514;2024-02-16T08:44:44;10.40;99.90
52181;DHT22;38158;53.338;6.514;2024-02-16T08:47:09;10.40;99.90
52181;DHT22;38158;53.338;6.514;2024-02-16T08:49:35;10.50;99.90
52181;DHT22;38158;53.338;6.514;2024-02-16T08:52:02;10.50;99.90
52181;DHT22;38158;53.338;6.514;2024-02-16T08:54:29;10.50;99.90
52181;DHT22;38158;53.338;6.514;2024-02-16T08:56:55;10.50;99.90
52181;DHT22;38158;53.338;6.514;2024-02-16T08:59:20;10.70;99.90
52181;DHT22;38158;53.338;6.514;2024-02-16T09:01:46;10.60;99.90
52181;DHT22;38158;53.338;6.514;2024-02-16T09:04:12;10.60;99.90
52181;DHT22;38158;53.338;6.514;2024-02-16T09:06:38;10.60;99.90
52181;DHT22;38158;53.338;6.514;2024-02-16T09:09:04;10.70;99.90
52181;DHT22;38158;53.338;6.514;2024-02-16T09:11:32;10.70;99.90
52181;DHT22;38158;53.338;6.514;2024-02-16T09:13:58;10.70;99.90
52181;DHT22;38158;53.338;6.514;2024-02-16T09:16:23;10.90;99.90
52181;DHT22;38158;53.338;6.514;2024-02-16T09:18:49;10.80;99.90
52181;DHT22;38158;53.338;6.514;2024-02-16T09:21:15;10.90;99.90
52181;DHT22;38158;53.338;6.514;2024-02-16T09:23:40;10.90;99.90
52181;DHT22;38158;53.338;6.514;2024-02-16T09:26:07;11.00;99.90
52181;DHT22;38158;53.338;6.514;2024-02-16T09:28:39;11.00;99.90
52181;DHT22;38158;53.338;6.514;2024-02-16T09:31:05;11.10;99.90
52181;DHT22;38158;53.338;6.514;2024-02-16T09:33:31;11.10;99.90
52181;DHT22;38158;53.338;6.514;2024-02-16T09:35:57;11.20;99.90
52181;DHT22;38158;53.338;6.514;2024-02-16T09:38:24;11.20;99.90
52181;DHT22;38158;53.338;6.514;2024-02-16T09:40:50;11.30;99.90
52181;DHT22;38158;53.338;6.514;2024-02-16T09:43:24;11.30;99.90
52181;DHT22;38158;53.338;6.514;2024-02-16T09:45:58;11.40;99.90
52181;DHT22;38158;53.338;6.514;2024-02-16T09:48:26;11.60;99.90
52181;DHT22;38158;53.338;6.514;2024-02-16T09:50:56;11.50;99.90
52181;DHT22;38158;53.338;6.514;2024-02-16T09:53:25;11.50;99.90
52181;DHT22;38158;53.338;6.514;2024-02-16T09:55:51;11.60;99.90
52181;DHT22;38158;53.338;6.514;2024-02-16T09:58:18;11.60;99.90
52181;DHT22;38158;53.338;6.514;2024-02-16T10:00:51;11.70;99.90
52181;DHT22;38158;53.338;6.514;2024-02-16T10:03:24;11.70;99.90
52181;DHT22;38158;53.338;6.514;2024-02-16T10:05:51;11.80;99.90
52181;DHT22;38158;53.338;6.514;2024-02-16T10:08:18;11.80;99.90
52181;DHT22;38158;53.338;6.514;2024-02-16T10:10:44;11.90;99.90
52181;DHT22;38158;53.338;6.514;2024-02-16T10:13:09;11.80;99.90
52181;DHT22;38158;53.338;6.514;2024-02-16T10:15:37;11.90;99.90
52181;DHT22;38158;53.338;6.514;2024-02-16T10:18:06;11.90;99.90
52181;DHT22;38158;53.338;6.514;2024-02-16T10:20:33;11.90;99.90
52181;DHT22;38158;53.338;6.514;2024-02-16T10:23:07;11.90;99.90
52181;DHT22;38158;53.338;6.514;2024-02-16T10:25:34;11.90;99.90
52181;DHT22;38158;53.338;6.514;2024-02-16T10:28:04;11.90;99.90
52181;DHT22;38158;53.338;6.514;2024-02-16T10:30:35;11.90;99.90
52181;DHT22;38158;53.338;6.514;2024-02-16T10:33:02;11.90;99.90
52181;DHT22;38158;53.338;6.514;2024-02-16T10:35:29;11.90;99.90
52181;DHT22;38158;53.338;6.514;2024-02-16T10:37:55;11.90;99.90
52181;DHT22;38158;53.338;6.514;2024-02-16T10:40:23;11.90;99.90
52181;DHT22;38158;53.338;6.514;2024-02-16T10:42:50;11.80;99.90
52181;DHT22;38158;53.338;6.514;2024-02-16T10:45:18;11.80;99.90
52181;DHT22;38158;53.338;6.514;2024-02-16T10:47:45;11.80;99.90
52181;DHT22;38158;53.338;6.514;2024-02-16T10:50:12;11.80;99.90
52181;DHT22;38158;53.338;6.514;2024-02-16T10:52:39;11.80;99.90
52181;DHT22;38158;53.338;6.514;2024-02-16T10:55:07;11.70;99.90
52181;DHT22;38158;53.338;6.514;2024-02-16T10:57:35;11.70;99.90
52181;DHT22;38158;53.338;6.514;2024-02-16T11:00:08;11.70;99.90
52181;DHT22;38158;53.338;6.514;2024-02-16T11:03:01;11.50;99.90
52181;DHT22;38158;53.338;6.514;2024-02-16T11:05:35;11.50;99.90
52181;DHT22;38158;53.338;6.514;2024-02-16T11:08:04;11.40;99.90
52181;DHT22;38158;53.338;6.514;2024-02-16T11:10:31;11.30;99.90
52181;DHT22;38158;53.338;6.514;2024-02-16T11:13:03;11.30;99.90
52181;DHT22;38158;53.338;6.514;2024-02-16T11:15:34;11.20;99.90
52181;DHT22;38158;53.338;6.514;2024-02-16T11:18:02;11.10;99.90
52181;DHT22;38158;53.338;6.514;2024-02-16T11:20:28;11.10;99.90
52181;DHT22;38158;53.338;6.514;2024-02-16T11:23:04;11.10;99.90
52181;DHT22;38158;53.338;6.514;2024-02-16T11:25:31;11.10;99.90
52181;DHT22;38158;53.338;6.514;2024-02-16T11:27:58;11.00;99.90
52181;DHT22;38158;53.338;6.514;2024-02-16T11:30:24;11.00;99.90
52181;DHT22;38158;53.338;6.514;2024-02-16T11:32:51;10.90;99.90
52181;DHT22;38158;53.338;6.514;2024-02-16T11:35:17;10.80;99.90
52181;DHT22;38158;53.338;6.514;2024-02-16T11:37:43;10.80;99.90
52181;DHT22;38158;53.338;6.514;2024-02-16T11:40:13;10.70;99.90
52181;DHT22;38158;53.338;6.514;2024-02-16T11:42:39;11.30;99.90
52181;DHT22;38158;53.338;6.514;2024-02-16T11:45:09;10.60;99.90
52181;DHT22;38158;53.338;6.514;2024-02-16T11:47:35;10.70;99.90
52181;DHT22;38158;53.338;6.514;2024-02-16T11:50:01;10.60;99.90
52181;DHT22;38158;53.338;6.514;2024-02-16T11:52:27;10.60;99.90
52181;DHT22;38158;53.338;6.514;2024-02-16T11:54:53;10.60;99.90
52181;DHT22;38158;53.338;6.514;2024-02-16T11:57:19;10.60;99.90
52181;DHT22;38158;53.338;6.514;2024-02-16T11:59:45;10.50;99.90
52181;DHT22;38158;53.338;6.514;2024-02-16T12:02:17;10.50;99.90
52181;DHT22;38158;53.338;6.514;2024-02-16T12:04:46;10.50;99.90
52181;DHT22;38158;53.338;6.514;2024-02-16T12:07:13;10.50;99.90
52181;DHT22;38158;53.338;6.514;2024-02-16T12:09:39;10.40;99.90
52181;DHT22;38158;53.338;6.514;2024-02-16T12:12:05;10.70;99.90
52181;DHT22;38158;53.338;6.514;2024-02-16T12:14:31;10.40;99.90
52181;DHT22;38158;53.338;6.514;2024-02-16T12:16:58;10.40;99.90
52181;DHT22;38158;53.338;6.514;2024-02-16T12:19:25;10.40;99.90
52181;DHT22;38158;53.338;6.514;2024-02-16T12:21:57;10.40;99.90
52181;DHT22;38158;53.338;6.514;2024-02-16T12:24:24;10.40;99.90
52181;DHT22;38158;53.338;6.514;2024-02-16T12:26:50;10.40;99.90
52181;DHT22;38158;53.338;6.514;2024-02-16T12:29:16;10.30;99.90
52181;DHT22;38158;53.338;6.514;2024-02-16T12:31:43;10.30;99.90
52181;DHT22;38158;53.338;6.514;2024-02-16T12:34:09;10.30;99.90
52181;DHT22;38158;53.338;6.514;2024-02-16T12:36:36;10.40;99.90
52181;DHT22;38158;53.338;6.514;2024-02-16T12:39:03;10.40;99.90
52181;DHT22;38158;53.338;6.514;2024-02-16T12:41:38;10.40;99.90
52181;DHT22;38158;53.338;6.514;2024-02-16T12:44:04;10.50;99.90
52181;DHT22;38158;53.338;6.514;2024-02-16T12:46:31;10.50;99.90
52181;DHT22;38158;53.338;6.514;2024-02-16T12:48:57;10.60;99.90
52181;DHT22;38158;53.338;6.514;2024-02-16T12:51:22;10.40;99.90
52181;DHT22;38158;53.338;6.514;2024-02-16T12:53:48;10.50;99.90
52181;DHT22;38158;53.338;6.514;2024-02-16T12:56:14;10.30;99.90
52181;DHT22;38158;53.338;6.514;2024-02-16T12:58:42;10.30;99.90
52181;DHT22;38158;53.338;6.514;2024-02-16T13:01:08;10.40;99.90
52181;DHT22;38158;53.338;6.514;2024-02-16T13:03:34;10.30;99.90
52181;DHT22;38158;53.338;6.514;2024-02-16T13:06:01;10.40;99.90
52181;DHT22;38158;53.338;6.514;2024-02-16T13:08:28;10.30;99.90
52181;DHT22;38158;53.338;6.514;2024-02-16T13:10:54;10.30;99.90
52181;DHT22;38158;53.338;6.514;2024-02-16T13:13:19;10.30;99.90
52181;DHT22;38158;53.338;6.514;2024-02-16T13:15:46;10.30;99.90
52181;DHT22;38158;53.338;6.514;2024-02-16T13:18:13;10.30;99.90
52181;DHT22;38158;53.338;6.514;2024-02-16T13:20:39;10.30;99.90
52181;DHT22;38158;53.338;6.514;2024-02-16T13:23:05;10.30;99.90
52181;DHT22;38158;53.338;6.514;2024-02-16T13:25:30;10.50;99.90
52181;DHT22;38158;53.338;6.514;2024-02-16T13:27:56;10.30;99.90
52181;DHT22;38158;53.338;6.514;2024-02-16T13:30:21;10.30;99.90
52181;DHT22;38158;53.338;6.514;2024-02-16T13:32:47;10.30;99.90
52181;DHT22;38158;53.338;6.514;2024-02-16T13:35:13;10.30;99.90
52181;DHT22;38158;53.338;6.514;2024-02-16T13:37:40;10.30;99.90
52181;DHT22;38158;53.338;6.514;2024-02-16T13:40:07;10.20;99.90
52181;DHT22;38158;53.338;6.514;2024-02-16T13:42:38;10.20;99.90
52181;DHT22;38158;53.338;6.514;2024-02-16T13:45:04;10.20;99.90
52181;DHT22;38158;53.338;6.514;2024-02-16T13:47:30;10.20;99.90
52181;DHT22;38158;53.338;6.514;2024-02-16T13:49:56;10.20;99.90
52181;DHT22;38158;53.338;6.514;2024-02-16T13:52:23;10.20;99.90
52181;DHT22;38158;53.338;6.514;2024-02-16T13:54:49;10.30;99.90
52181;DHT22;38158;53.338;6.514;2024-02-16T13:57:15;10.20;99.90
52181;DHT22;38158;53.338;6.514;2024-02-16T13:59:42;10.20;99.90
52181;DHT22;38158;53.338;6.514;2024-02-16T14:02:08;10.20;99.90
52181;DHT22;38158;53.338;6.514;2024-02-16T14:04:33;10.20;99.90
52181;DHT22;38158;53.338;6.514;2024-02-16T14:06:59;10.20;99.90
52181;DHT22;38158;53.338;6.514;2024-02-16T14:09:25;10.20;99.90
52181;DHT22;38158;53.338;6.514;2024-02-16T14:11:52;10.20;99.90
52181;DHT22;38158;53.338;6.514;2024-02-16T14:14:20;10.20;99.90
52181;DHT22;38158;53.338;6.514;2024-02-16T14:16:47;10.10;99.90
52181;DHT22;38158;53.338;6.514;2024-02-16T14:19:13;10.10;99.90
52181;DHT22;38158;53.338;6.514;2024-02-16T14:21:38;10.10;99.90
52181;DHT22;38158;53.338;6.514;2024-02-16T14:24:04;10.10;99.90
52181;DHT22;38158;53.338;6.514;2024-02-16T14:26:30;10.10;99.90
52181;DHT22;38158;53.338;6.514;2024-02-16T14:28:56;10.20;99.90
52181;DHT22;38158;53.338;6.514;2024-02-16T14:31:22;10.10;99.90
52181;DHT22;38158;53.338;6.514;2024-02-16T14:33:51;10.20;99.90
52181;DHT22;38158;53.338;6.514;2024-02-16T14:36:16;10.20;99.90
52181;DHT22;38158;53.338;6.514;2024-02-16T14:38:42;10.20;99.90
52181;DHT22;38158;53.338;6.514;2024-02-16T14:41:08;10.20;99.90
52181;DHT22;38158;53.338;6.514;2024-02-16T14:43:33;10.20;99.90
52181;DHT22;38158;53.338;6.514;2024-02-16T14:46:00;10.20;99.90
52181;DHT22;38158;53.338;6.514;2024-02-16T14:48:25;10.30;99.90
52181;DHT22;38158;53.338;6.514;2024-02-16T14:50:52;10.20;99.90
52181;DHT22;38158;53.338;6.514;2024-02-16T14:53:21;10.20;99.90
52181;DHT22;38158;53.338;6.514;2024-02-16T14:55:50;10.20;99.90
52181;DHT22;38158;53.338;6.514;2024-02-16T14:58:16;10.20;99.90
52181;DHT22;38158;53.338;6.514;2024-02-16T15:00:42;10.20;99.90
52181;DHT22;38158;53.338;6.514;2024-02-16T15:03:12;10.30;99.90
52181;DHT22;38158;53.338;6.514;2024-02-16T15:05:39;10.30;99.90
52181;DHT22;38158;53.338;6.514;2024-02-16T15:08:04;10.30;99.90
52181;DHT22;38158;53.338;6.514;2024-02-16T15:10:31;10.30;99.90
52181;DHT22;38158;53.338;6.514;2024-02-16T15:12:57;10.30;99.90
52181;DHT22;38158;53.338;6.514;2024-02-16T15:15:23;10.30;99.90
52181;DHT22;38158;53.338;6.514;2024-02-16T15:17:49;10.30;99.90
52181;DHT22;38158;53.338;6.514;2024-02-16T15:20:14;10.30;99.90
52181;DHT22;38158;53.338;6.514;2024-02-16T15:22:40;10.40;99.90
52181;DHT22;38158;53.338;6.514;2024-02-16T15:25:07;10.40;99.90
52181;DHT22;38158;53.338;6.514;2024-02-16T15:27:33;10.40;99.90
52181;DHT22;38158;53.338;6.514;2024-02-16T15:29:59;10.40;99.90